Time;durP1;ratioP1;P1;durP2;ratioP2;P2;SDS_P1;SDS_P2;PMS_P1;PMS_P2;Temp;Humidity;BMP_temperature;BMP_pressure;BME280_temperature;BME280_humidity;BME280_pressure;Samples;Min_cycle;Max_cycle;Signal;HPM_P1;HPM_P2
2023/09/20 00:00:36;;;;;;;16.00;9.10;;;;;;;22.92;37.15;100053.05;108068;1259;59103;-67
2023/09/20 00:03:04;;;;;;;15.20;8.90;;;;;;;22.86;37.50;100050.86;108027;1254;73278;-66
2023/09/20 00:05:33;;;;;;;15.00;8.70;;;;;;;22.91;37.25;100054.38;108011;1254;70464;-66
2023/09/20 00:08:03;;;;;;;15.10;9.00;;;;;;;22.90;37.47;100054.45;108042;1254;71358;-67
2023/09/20 00:10:31;;;;;;;16.00;8.40;;;;;;;22.84;37.44;100057.13;108023;1254;59506;-66
2023/09/20 00:12:58;;;;;;;17.50;8.50;;;;;;;22.74;37.63;100056.36;107975;1254;60027;-67
2023/09/20 00:15:26;;;;;;;13.30;8.90;;;;;;;22.88;37.43;100061.30;108051;1259;71832;-66
2023/09/20 00:17:54;;;;;;;12.50;8.50;;;;;;;22.80;37.54;100061.77;107941;1260;70039;-66
2023/09/20 00:20:22;;;;;;;15.80;8.80;;;;;;;22.67;37.88;100067.73;108017;1254;72687;-66
2023/09/20 00:22:50;;;;;;;14.60;8.40;;;;;;;22.65;38.07;100070.07;108078;1254;60030;-67
2023/09/20 00:25:19;;;;;;;14.40;8.60;;;;;;;22.81;37.69;100069.41;108062;1254;60012;-66
2023/09/20 00:27:46;;;;;;;17.70;9.00;;;;;;;22.99;37.61;100068.02;108099;1253;73047;-67
2023/09/20 00:30:18;;;;;;;13.00;8.20;;;;;;;22.93;37.62;100072.32;108123;1258;68752;-65
2023/09/20 00:32:46;;;;;;;13.70;8.90;;;;;;;22.87;37.86;100071.77;108071;1257;72616;-66
2023/09/20 00:35:16;;;;;;;16.60;9.00;;;;;;;22.87;37.75;100070.88;108058;1253;61974;-65
2023/09/20 00:37:45;;;;;;;18.40;8.70;;;;;;;23.02;37.52;100070.73;108088;1254;60095;-66
2023/09/20 00:40:18;;;;;;;14.60;8.50;;;;;;;22.78;37.90;100074.88;108219;1257;73027;-66
2023/09/20 00:42:46;;;;;;;16.20;8.30;;;;;;;23.14;37.55;100072.39;108203;1260;69121;-66
2023/09/20 00:45:15;;;;;;;14.00;9.20;;;;;;;23.04;37.60;100073.63;108118;1254;72493;-66
2023/09/20 00:47:44;;;;;;;14.70;8.90;;;;;;;23.28;37.38;100075.06;108116;1259;59615;-66
2023/09/20 00:50:12;;;;;;;15.80;9.20;;;;;;;23.21;37.47;100079.84;108197;1254;59650;-66
2023/09/20 00:52:44;;;;;;;14.30;8.80;;;;;;;23.04;37.76;100078.11;108168;1254;73128;-66
2023/09/20 00:55:15;;;;;;;18.50;10.10;;;;;;;23.06;37.90;100079.05;107946;1254;70291;-66
2023/09/20 00:57:46;;;;;;;12.50;8.30;;;;;;;23.22;37.52;100082.75;108078;1253;72673;-67
2023/09/20 01:00:27;;;;;;;12.50;8.60;;;;;;;23.18;37.48;100082.39;108075;1254;59525;-67
2023/09/20 01:02:55;;;;;;;11.90;8.10;;;;;;;23.23;37.74;100083.43;108077;1255;60902;-66
2023/09/20 01:05:25;;;;;;;13.20;8.80;;;;;;;23.18;37.73;100085.46;108123;1254;72601;-66
2023/09/20 01:07:57;;;;;;;17.60;8.60;;;;;;;22.92;38.10;100083.63;108094;1254;70739;-66
2023/09/20 01:10:25;;;;;;;15.10;8.20;;;;;;;22.94;38.18;100086.52;108200;1256;72416;-66
2023/09/20 01:12:57;;;;;;;12.20;8.20;;;;;;;22.90;38.18;100089.34;108141;1260;60010;-67
2023/09/20 01:15:26;;;;;;;15.30;8.90;;;;;;;22.81;38.37;100091.96;108028;1253;60094;-65
2023/09/20 01:17:57;;;;;;;14.30;8.80;;;;;;;23.09;37.82;100089.63;108194;1259;72589;-65
2023/09/20 01:20:25;;;;;;;;;;;;;;;22.86;38.23;100094.39;108122;1254;70226;-64
2023/09/20 01:22:59;;;;;;;16.20;8.80;;;;;;;22.93;38.31;100094.11;108125;1260;72807;-65
2023/09/20 01:25:29;;;;;;;11.90;8.60;;;;;;;22.80;38.38;100098.98;108165;1259;59703;-65
2023/09/20 01:27:58;;;;;;;13.90;8.70;;;;;;;23.00;38.23;100099.39;108184;1256;59512;-66
2023/09/20 01:30:27;;;;;;;16.00;8.50;;;;;;;23.42;37.72;100103.31;108178;1259;71999;-67
2023/09/20 01:32:56;;;;;;;15.80;8.30;;;;;;;23.17;37.78;100098.98;107987;1254;70129;-67
2023/09/20 01:35:24;;;;;;;13.40;8.10;;;;;;;23.16;38.16;100101.55;108106;1253;72506;-66
2023/09/20 01:37:52;;;;;;;13.00;7.90;;;;;;;23.17;37.97;100100.26;108048;1254;60248;-66
2023/09/20 01:40:23;;;;;;;13.30;8.50;;;;;;;23.26;37.95;100098.02;107926;1260;62314;-65
2023/09/20 01:42:50;;;;;;;15.70;9.20;;;;;;;23.27;37.84;100098.77;108056;1255;72535;-66
2023/09/20 01:45:18;;;;;;;12.70;8.90;;;;;;;23.03;38.06;100098.80;107907;1259;68489;-66
2023/09/20 01:47:49;;;;;;;12.30;8.70;;;;;;;23.01;38.27;100098.29;108038;1255;72648;-66
2023/09/20 01:50:19;;;;;;;16.10;8.40;;;;;;;23.00;38.26;100097.81;108055;1257;60405;-67
2023/09/20 01:52:50;;;;;;;14.30;8.40;;;;;;;23.05;38.20;100091.63;108088;1254;60322;-66
2023/09/20 01:55:20;;;;;;;9.50;7.60;;;;;;;22.98;38.50;100097.94;107987;1255;74380;-65
2023/09/20 01:57:50;;;;;;;13.40;8.50;;;;;;;23.04;38.34;100094.23;108092;1255;69286;-64
2023/09/20 02:00:37;;;;;;;13.50;7.80;;;;;;;23.04;38.39;100092.10;107934;1259;71784;-66
2023/09/20 02:03:10;;;;;;;13.40;8.00;;;;;;;23.00;38.57;100087.77;108065;1254;60352;-66
2023/09/20 02:05:37;;;;;;;10.50;7.20;;;;;;;22.93;38.64;100090.14;108099;1253;60300;-66
2023/09/20 02:08:06;;;;;;;12.80;8.40;;;;;;;22.92;38.84;100089.94;108025;1254;72956;-66
2023/09/20 02:10:36;;;;;;;12.00;8.50;;;;;;;22.73;39.11;100092.80;107997;1260;68786;-67
2023/09/20 02:13:04;;;;;;;13.80;7.90;;;;;;;22.95;38.81;100093.20;108039;1255;71257;-66
2023/09/20 02:15:34;;;;;;;11.30;7.20;;;;;;;23.02;38.73;100094.21;108146;1254;60346;-66
2023/09/20 02:18:06;;;;;;;14.20;8.00;;;;;;;22.94;38.86;100099.04;108091;1258;60390;-66
2023/09/20 02:20:36;;;;;;;10.70;7.90;;;;;;;22.91;38.93;100098.95;108138;1258;74296;-67
2023/09/20 02:23:06;;;;;;;15.20;8.10;;;;;;;22.90;39.14;100100.16;108140;1259;70129;-66
2023/09/20 02:25:33;;;;;;;14.10;7.70;;;;;;;22.54;39.72;100105.08;108254;1253;71358;-66
2023/09/20 02:28:01;;;;;;;11.40;7.30;;;;;;;22.54;39.87;100104.15;108172;1253;60418;-67
2023/09/20 02:30:31;;;;;;;9.80;7.80;;;;;;;22.61;39.80;100105.54;108214;1253;60479;-65
2023/09/20 02:32:59;;;;;;;13.30;7.00;;;;;;;22.76;39.49;100105.08;108221;1252;73770;-67
2023/09/20 02:35:28;;;;;;;11.50;7.40;;;;;;;22.87;39.35;100102.70;108161;1255;70239;-67
2023/09/20 02:37:56;;;;;;;12.40;7.80;;;;;;;22.91;39.32;100105.56;108234;1256;71122;-67
2023/09/20 02:40:24;;;;;;;10.70;7.10;;;;;;;22.94;39.39;100104.98;108212;1253;60322;-66
2023/09/20 02:42:53;;;;;;;9.50;7.00;;;;;;;22.95;39.39;100104.14;108100;1259;60370;-66
2023/09/20 02:45:24;;;;;;;13.70;7.70;;;;;;;22.93;39.43;100104.83;108196;1257;73198;-67
2023/09/20 02:47:52;;;;;;;12.00;7.70;;;;;;;22.99;39.42;100102.51;108260;1257;69920;-66
2023/09/20 02:50:23;;;;;;;13.60;7.80;;;;;;;22.95;39.58;100101.12;108159;1254;72063;-65
2023/09/20 02:52:50;;;;;;;;;;;;;;;22.91;39.60;100099.98;108064;1253;60431;-66
2023/09/20 02:55:20;;;;;;;11.20;7.40;;;;;;;23.12;39.25;100098.01;108037;1257;60645;-66
2023/09/20 02:57:52;;;;;;;11.80;7.90;;;;;;;23.02;39.55;100092.98;108174;1254;73833;-66
2023/09/20 03:00:27;;;;;;;14.00;7.80;;;;;;;23.13;39.40;100088.21;108233;1255;68952;-65
2023/09/20 03:02:57;;;;;;;18.80;8.10;;;;;;;23.12;39.46;100092.98;108068;1254;72735;-66
2023/09/20 03:05:27;;;;;;;12.80;7.60;;;;;;;23.05;39.72;100090.52;108206;1254;60708;-67
2023/09/20 03:07:55;;;;;;;16.60;7.40;;;;;;;22.88;39.96;100091.34;108015;1253;59893;-66
2023/09/20 03:10:23;;;;;;;12.50;7.40;;;;;;;22.80;40.33;100092.73;108115;1254;72668;-66
2023/09/20 03:12:54;;;;;;;13.00;7.10;;;;;;;22.99;40.17;100092.70;108242;1254;70677;-64
2023/09/20 03:15:23;;;;;;;16.90;7.90;;;;;;;23.17;39.95;100090.75;108165;1254;72058;-66
2023/09/20 03:17:53;;;;;;;8.10;6.80;;;;;;;23.12;39.98;100092.09;108300;1252;60312;-65
2023/09/20 03:20:23;;;;;;;10.50;7.20;;;;;;;23.10;40.10;100090.83;108291;1254;60478;-66
2023/09/20 03:23:03;;;;;;;10.30;6.80;;;;;;;23.24;40.01;100092.58;108168;1254;74237;-66
2023/09/20 03:25:37;;;;;;;14.20;7.50;;;;;;;23.22;40.11;100089.91;108283;1257;72589;-66
2023/09/20 03:28:28;;;;;;;13.50;6.70;;;;;;;23.25;40.10;100091.77;108161;1254;71381;-67
2023/09/20 03:30:56;;;;;;;10.50;7.30;;;;;;;23.28;40.18;100091.52;108162;1253;60316;-67
2023/09/20 03:33:25;;;;;;;11.10;6.50;;;;;;;23.32;40.23;100086.48;108126;1254;60568;-67
2023/09/20 03:35:52;;;;;;;8.30;6.60;;;;;;;23.06;40.85;100082.75;108068;1253;74635;-67
2023/09/20 03:38:20;;;;;;;12.80;6.80;;;;;;;23.11;40.88;100087.11;108070;1260;68759;-68
2023/09/20 03:40:48;;;;;;;13.70;7.00;;;;;;;23.24;40.88;100082.58;108168;1255;72647;-67
2023/09/20 03:43:15;;;;;;;11.50;7.30;;;;;;;23.26;40.94;100085.79;108185;1254;60077;-66
2023/09/20 03:45:47;;;;;;;10.80;7.00;;;;;;;23.35;41.10;100088.37;108239;1254;60623;-66
2023/09/20 03:48:16;;;;;;;12.70;7.30;;;;;;;23.56;41.13;100086.63;108341;1256;72645;-67
2023/09/20 03:50:45;;;;;;;13.90;7.20;;;;;;;23.17;42.04;100087.50;108202;1254;69081;-66
2023/09/20 03:53:13;;;;;;;12.50;7.40;;;;;;;23.19;42.74;100088.73;108209;1253;72714;-66
2023/09/20 03:55:46;;;;;;;13.30;7.90;;;;;;;23.36;42.66;100088.65;108127;1257;61728;-66
2023/09/20 03:58:13;;;;;;;12.20;8.10;;;;;;;23.15;43.35;100085.92;108057;1254;60546;-67
2023/09/20 04:00:42;;;;;;;11.60;7.60;;;;;;;22.91;44.18;100086.81;108242;1254;73818;-66
2023/09/20 04:03:13;;;;;;;15.60;7.10;;;;;;;22.99;43.97;100086.77;108224;1254;70356;-66
2023/09/20 04:05:40;;;;;;;11.90;7.50;;;;;;;22.88;44.64;100088.08;108221;1257;72744;-66
2023/09/20 04:08:16;;;;;;;11.00;7.50;;;;;;;23.09;44.45;100089.16;108214;1253;61802;-65
2023/09/20 04:10:45;;;;;;;10.60;7.20;;;;;;;23.02;44.35;100092.06;108323;1254;60420;-66
2023/09/20 04:13:14;;;;;;;13.60;7.70;;;;;;;22.92;44.93;100093.52;108097;1254;72680;-67
2023/09/20 04:15:42;;;;;;;12.10;8.40;;;;;;;22.82;45.37;100097.44;108272;1254;70592;-66
2023/09/20 04:18:12;;;;;;;11.00;7.40;;;;;;;22.96;45.55;100091.16;108117;1257;72814;-65
2023/09/20 04:20:45;;;;;;;14.30;8.30;;;;;;;23.10;45.34;100093.19;108256;1258;61506;-66
2023/09/20 04:23:13;;;;;;;18.00;9.20;;;;;;;22.94;45.84;100092.39;108196;1254;60501;-65
2023/09/20 04:25:41;;;;;;;11.40;8.30;;;;;;;22.97;46.37;100096.42;109271;1255;73837;-66
2023/09/20 04:28:09;;;;;;;12.90;8.60;;;;;;;22.97;46.57;100097.33;109169;1253;69173;-66
2023/09/20 04:30:38;;;;;;;12.90;9.10;;;;;;;22.95;46.88;100095.77;109179;1254;72668;-67
2023/09/20 04:33:07;;;;;;;11.90;8.40;;;;;;;23.01;47.19;100095.33;109179;1254;60608;-66
2023/09/20 04:35:40;;;;;;;12.00;8.90;;;;;;;23.00;47.71;100095.63;109201;1253;58899;-66
2023/09/20 04:38:12;;;;;;;13.50;8.60;;;;;;;22.70;49.01;100095.12;109301;1254;74352;-66
2023/09/20 04:40:41;;;;;;;12.90;8.20;;;;;;;22.61;50.03;100097.14;109283;1254;70506;-66
2023/09/20 04:43:09;;;;;;;18.40;8.60;;;;;;;22.75;49.85;100095.56;109241;1254;71158;-66
2023/09/20 04:45:36;;;;;;;10.90;8.30;;;;;;;22.77;50.25;100095.52;109284;1253;61189;-66
2023/09/20 04:48:05;;;;;;;16.30;8.80;;;;;;;22.58;51.21;100099.51;109189;1253;59988;-67
2023/09/20 04:50:34;;;;;;;10.80;7.50;;;;;;;22.54;52.09;100096.30;109218;1253;72578;-67
2023/09/20 04:53:02;;;;;;;10.30;7.90;;;;;;;22.57;52.25;100094.95;109193;1253;69224;-65
2023/09/20 04:55:33;;;;;;;17.30;8.50;;;;;;;22.68;52.25;100090.05;109175;1254;71048;-66
2023/09/20 04:58:01;;;;;;;11.00;8.20;;;;;;;22.44;53.30;100088.95;109265;1254;61669;-67
2023/09/20 05:00:37;;;;;;;11.30;8.20;;;;;;;22.57;53.17;100089.38;109281;1254;59187;-67
2023/09/20 05:03:06;;;;;;;14.00;8.20;;;;;;;22.58;53.15;100091.14;109154;1253;72640;-66
2023/09/20 05:05:34;;;;;;;11.50;8.20;;;;;;;22.44;54.03;100097.54;109325;1254;70320;-66
2023/09/20 05:08:04;;;;;;;14.80;8.10;;;;;;;22.28;54.55;100101.38;109122;1257;71592;-67
2023/09/20 05:12:43;;;;;;;15.00;9.00;;;;;;;22.21;55.22;100099.33;104768;1292;600559;-68
2023/09/20 05:15:13;;;;;;;18.20;8.40;;;;;;;22.43;54.47;100103.48;107252;1267;61721;-67
2023/09/20 05:17:40;;;;;;;15.80;8.70;;;;;;;22.57;54.66;100101.41;107269;1266;60639;-66
2023/09/20 05:20:07;;;;;;;10.80;8.40;;;;;;;22.55;54.53;100098.21;107283;1269;72143;-67
2023/09/20 05:22:34;;;;;;;13.40;8.40;;;;;;;22.32;55.29;100098.95;107267;1267;70312;-68
2023/09/20 05:25:01;;;;;;;11.70;7.90;;;;;;;22.21;55.76;100101.28;107166;1267;157430;-67
2023/09/20 05:27:28;;;;;;;12.20;7.50;;;;;;;22.31;55.55;100103.30;107311;1271;61797;-66
2023/09/20 05:29:55;;;;;;;12.60;8.20;;;;;;;22.34;55.22;100101.95;107331;1266;60316;-66
2023/09/20 05:32:23;;;;;;;11.70;8.90;;;;;;;22.22;55.48;100108.58;107370;1266;72644;-66
2023/09/20 05:34:51;;;;;;;13.50;8.40;;;;;;;22.34;55.22;100104.15;107379;1265;70511;-66
2023/09/20 05:37:18;;;;;;;14.60;7.80;;;;;;;22.36;55.25;100105.70;107304;1265;72804;-66
2023/09/20 05:39:47;;;;;;;11.20;8.30;;;;;;;22.37;54.96;100106.86;107327;1265;60902;-66
2023/09/20 05:42:15;;;;;;;11.30;8.30;;;;;;;22.40;54.98;100114.20;107291;1268;60756;-66
2023/09/20 05:44:42;;;;;;;14.40;8.30;;;;;;;22.22;54.90;100113.70;107306;1268;72936;-66
2023/09/20 05:47:09;;;;;;;12.70;8.60;;;;;;;22.11;55.05;100114.33;107318;1265;70356;-66
2023/09/20 05:49:36;;;;;;;12.00;8.60;;;;;;;22.20;54.86;100111.02;107340;1268;72626;-67
2023/09/20 05:52:05;;;;;;;13.40;8.40;;;;;;;22.32;54.29;100104.41;107272;1265;61907;-66
2023/09/20 05:54:32;;;;;;;11.00;7.70;;;;;;;22.53;53.46;100112.15;107305;1268;60041;-66
2023/09/20 05:56:59;;;;;;;10.00;7.20;;;;;;;22.80;52.73;100106.34;107550;1260;73698;-65
2023/09/20 05:59:26;;;;;;;14.60;7.70;;;;;;;22.91;52.16;100104.31;107568;1262;70001;-66
2023/09/20 06:01:53;;;;;;;12.00;8.20;;;;;;;22.64;52.48;100112.25;107587;1264;72706;-66
2023/09/20 06:04:21;;;;;;;11.50;7.70;;;;;;;22.83;51.97;100113.22;107565;1260;61699;-67
2023/09/20 06:06:49;;;;;;;14.00;8.70;;;;;;;22.76;51.94;100114.17;107549;1264;60336;-67
2023/09/20 06:09:16;;;;;;;12.50;7.80;;;;;;;22.73;52.02;100112.70;107565;1261;73136;-66
2023/09/20 06:11:42;;;;;;;18.50;8.40;;;;;;;22.87;51.65;100115.55;107711;1262;70178;-67
2023/09/20 06:14:09;;;;;;;12.10;8.00;;;;;;;22.93;51.56;100113.80;107699;1262;72458;-66
2023/09/20 06:16:36;;;;;;;14.40;8.70;;;;;;;22.90;51.43;100109.44;107726;1259;61764;-65
2023/09/20 06:19:03;;;;;;;12.90;8.70;;;;;;;23.05;51.02;100113.52;107700;1264;59130;-66
2023/09/20 06:21:34;;;;;;;;;;;;;;;22.92;51.22;100117.50;107748;1259;72503;-67
2023/09/20 06:24:02;;;;;;;14.70;9.30;;;;;;;22.90;51.46;100125.88;107679;1260;70135;-66
2023/09/20 06:26:29;;;;;;;12.70;8.90;;;;;;;23.10;51.14;100124.27;107716;1257;72899;-67
2023/09/20 06:28:56;;;;;;;16.30;8.20;;;;;;;23.13;50.95;100131.17;107787;1257;61670;-67
2023/09/20 06:31:23;;;;;;;20.80;9.90;;;;;;;23.04;51.13;100130.72;107752;1257;60109;-66
2023/09/20 06:33:50;;;;;;;18.40;9.50;;;;;;;23.20;50.90;100132.88;107810;1259;72836;-66
2023/09/20 06:36:18;;;;;;;12.40;9.60;;;;;;;23.25;50.73;100138.02;107672;1260;69092;-67
2023/09/20 06:38:44;;;;;;;13.30;9.20;;;;;;;23.28;50.86;100141.88;107623;1263;71361;-66
2023/09/20 06:41:12;;;;;;;16.80;9.70;;;;;;;23.00;51.75;100144.34;107665;1260;61749;-66
2023/09/20 06:43:38;;;;;;;14.40;9.90;;;;;;;22.97;51.80;100149.80;107644;1262;59519;-66
2023/09/20 06:46:08;;;;;;;14.20;9.20;;;;;;;22.96;51.90;100151.29;107713;1263;72930;-66
2023/09/20 06:48:37;;;;;;;13.70;9.30;;;;;;;22.82;52.43;100155.95;107652;1260;70584;-67
2023/09/20 06:51:03;;;;;;;17.80;9.90;;;;;;;22.87;52.21;100160.32;107721;1261;72466;-67
2023/09/20 06:53:30;;;;;;;17.00;8.80;;;;;;;22.82;52.55;100161.84;107637;1261;62086;-67
2023/09/20 06:55:59;;;;;;;13.80;9.00;;;;;;;23.09;51.76;100160.35;107687;1260;60267;-66
2023/09/20 06:58:26;;;;;;;12.40;8.80;;;;;;;23.41;51.33;100158.10;107711;1260;72190;-67
2023/09/20 07:00:53;;;;;;;11.60;8.80;;;;;;;23.79;50.52;100152.70;107705;1259;70308;-65
2023/09/20 07:03:20;;;;;;;12.60;9.70;;;;;;;23.87;49.95;100151.73;107670;1258;72753;-65
2023/09/20 07:05:47;;;;;;;13.20;9.40;;;;;;;23.72;50.57;100155.80;107671;1260;62203;-66
2023/09/20 07:08:14;;;;;;;12.10;8.70;;;;;;;23.84;50.39;100159.05;107730;1260;60365;-66
2023/09/20 07:10:42;;;;;;;13.20;8.90;;;;;;;23.93;50.20;100158.34;107660;1261;73600;-66
2023/09/20 07:13:09;;;;;;;13.10;8.90;;;;;;;23.70;50.74;100152.77;107769;1260;70388;-66
2023/09/20 07:15:37;;;;;;;15.60;9.40;;;;;;;23.92;50.25;100155.20;107693;1262;72938;-67
2023/09/20 07:18:13;;;;;;;18.60;10.40;;;;;;;24.00;50.10;100157.71;107717;1260;60634;-66
2023/09/20 07:20:41;;;;;;;17.30;9.10;;;;;;;24.13;49.77;100155.63;107755;1262;60020;-66
2023/09/20 07:23:09;;;;;;;12.60;8.90;;;;;;;24.09;49.88;100154.91;107723;1262;72847;-67
2023/09/20 07:25:37;;;;;;;16.40;9.50;;;;;;;24.15;49.98;100155.30;107755;1259;69453;-66
2023/09/20 07:28:06;;;;;;;13.70;8.40;;;;;;;24.15;49.99;100155.75;107729;1260;73434;-66
2023/09/20 07:30:39;;;;;;;11.80;8.30;;;;;;;24.33;49.63;100156.48;107769;1263;60839;-66
2023/09/20 07:33:29;;;;;;;14.60;9.20;;;;;;;24.75;48.81;100157.80;107694;1261;59596;-66
2023/09/20 07:35:58;;;;;;;11.90;9.10;;;;;;;25.04;47.77;100155.91;107698;1261;73102;-66
2023/09/20 07:38:26;;;;;;;17.60;9.60;;;;;;;24.87;47.99;100153.23;107710;1261;70431;-66
2023/09/20 07:41:09;;;;;;;14.80;9.10;;;;;;;24.58;48.80;100160.38;107736;1260;72759;-67
2023/09/20 07:43:38;;;;;;;14.10;9.10;;;;;;;24.82;48.37;100158.83;107706;1260;61720;-66
2023/09/20 07:46:07;;;;;;;12.80;9.10;;;;;;;25.09;47.97;100161.19;107704;1259;60010;-66
2023/09/20 07:48:37;;;;;;;13.60;8.40;;;;;;;25.29;47.76;100160.00;107666;1261;73096;-66
2023/09/20 07:51:04;;;;;;;16.60;8.60;;;;;;;25.34;47.70;100164.92;107718;1260;70427;-67
2023/09/20 07:53:30;;;;;;;12.10;8.10;;;;;;;25.55;47.34;100160.86;107685;1261;73270;-66
2023/09/20 07:56:04;;;;;;;13.80;8.50;;;;;;;25.64;46.78;100156.88;107701;1259;60122;-67
2023/09/20 07:58:37;;;;;;;10.30;7.90;;;;;;;25.64;46.89;100160.96;107675;1259;60174;-67
2023/09/20 08:01:10;;;;;;;13.50;8.00;;;;;;;25.89;46.57;100156.22;107719;1260;72933;-66
2023/09/20 08:03:38;;;;;;;11.00;7.30;;;;;;;26.59;45.17;100153.35;107728;1260;70140;-67
2023/09/20 08:06:09;;;;;;;10.70;7.50;;;;;;;27.08;43.92;100154.35;107710;1260;72597;-67
2023/09/20 08:08:36;;;;;;;12.80;7.70;;;;;;;27.46;42.94;100155.04;107700;1258;62021;-67
2023/09/20 08:11:03;;;;;;;11.80;6.80;;;;;;;27.65;42.39;100152.45;107768;1257;59373;-67
2023/09/20 08:13:40;;;;;;;10.20;6.20;;;;;;;27.85;42.17;100156.05;107759;1257;73773;-67
2023/09/20 08:16:10;;;;;;;10.50;6.30;;;;;;;27.98;40.88;100156.60;107773;1257;70251;-67
2023/09/20 08:21:25;;;;;;;12.60;6.90;;;;;;;27.90;40.45;100161.40;107759;1257;59490;-67
2023/09/20 08:59:57;;;;;;;10.30;7.00;;;;;;;28.68;39.53;100162.58;108109;1257;72742;-68
2023/09/20 09:02:25;;;;;;;11.40;7.00;;;;;;;28.71;39.38;100165.06;108062;1253;59484;-67
2023/09/20 09:04:53;;;;;;;15.50;7.00;;;;;;;28.03;40.35;100160.69;108042;1253;60880;-68
2023/09/20 09:07:22;;;;;;;13.70;7.10;;;;;;;28.18;40.39;100164.15;108156;1255;72978;-67
2023/09/20 09:09:50;;;;;;;11.20;7.00;;;;;;;28.19;40.44;100161.30;108139;1254;69516;-67
2023/09/20 09:12:16;;;;;;;16.70;7.20;;;;;;;28.31;40.08;100161.05;108160;1253;72695;-67
2023/09/20 09:14:43;;;;;;;12.00;7.50;;;;;;;28.47;40.00;100158.38;108116;1253;60045;-67
2023/09/20 09:17:10;;;;;;;12.20;6.70;;;;;;;28.72;39.96;100160.80;107995;1254;60064;-66
2023/09/20 09:19:40;;;;;;;10.30;6.70;;;;;;;28.75;39.51;100158.19;108071;1253;71810;-67
2023/09/20 09:22:07;;;;;;;10.90;7.50;;;;;;;28.80;39.95;100159.52;108086;1254;70689;-67
2023/09/20 09:24:53;;;;;;;8.40;6.60;;;;;;;29.02;39.59;100156.69;108029;1254;73121;-67
2023/09/20 09:27:21;;;;;;;8.20;7.20;;;;;;;29.19;39.27;100158.89;108130;1253;60326;-66
2023/09/20 09:29:47;;;;;;;12.40;6.60;;;;;;;29.20;39.72;100162.58;108145;1254;60313;-66
2023/09/20 09:32:14;;;;;;;11.30;7.00;;;;;;;29.07;39.64;100161.88;108097;1253;73447;-66
2023/09/20 09:34:41;;;;;;;10.70;7.50;;;;;;;29.06;39.48;100160.91;108082;1254;70413;-66
2023/09/20 09:37:11;;;;;;;12.00;6.90;;;;;;;29.16;40.08;100165.08;108067;1253;72517;-66
2023/09/20 09:42:25;;;;;;;10.90;6.70;;;;;;;26.95;43.91;100168.05;105542;1283;600575;-67
2023/09/20 09:44:55;;;;;;;9.70;7.20;;;;;;;27.98;42.48;100163.98;107360;1264;60996;-67
2023/09/20 09:47:26;;;;;;;13.20;7.30;;;;;;;28.07;41.99;100162.60;107572;1260;59227;-67
2023/09/20 09:49:54;;;;;;;12.10;8.00;;;;;;;28.09;42.46;100159.39;107533;1260;70942;-67
2023/09/20 09:52:26;;;;;;;10.70;7.20;;;;;;;28.15;42.46;100160.55;107538;1260;72564;-67
2023/09/20 09:54:53;;;;;;;9.60;7.30;;;;;;;28.27;42.51;100158.49;107333;1266;259485;-67
2023/09/20 09:57:22;;;;;;;9.80;7.00;;;;;;;28.03;42.60;100163.78;107692;1259;62668;-68
2023/09/20 09:59:51;;;;;;;14.20;7.40;;;;;;;28.21;42.21;100160.02;107711;1263;59178;-67
2023/09/20 10:02:20;;;;;;;9.10;6.80;;;;;;;28.20;42.10;100162.29;107684;1261;72298;-67
2023/09/20 10:04:58;;;;;;;12.30;7.20;;;;;;;28.14;42.17;100160.37;107744;1261;70447;-67
2023/09/20 10:07:31;;;;;;;12.80;7.30;;;;;;;28.23;41.84;100157.79;107584;1261;71369;-67
2023/09/20 10:10:12;;;;;;;9.60;6.10;;;;;;;28.41;41.62;100157.02;107589;1261;62959;-67
2023/09/20 10:12:40;;;;;;;9.60;6.80;;;;;;;28.39;41.80;100156.41;107509;1260;59461;-66
2023/09/20 10:15:09;;;;;;;13.10;6.40;;;;;;;28.67;41.21;100156.52;107596;1258;73171;-67
2023/09/20 10:17:54;;;;;;;10.40;6.90;;;;;;;28.58;41.42;100154.23;107523;1261;70007;-66
2023/09/20 10:20:23;;;;;;;13.80;6.60;;;;;;;28.51;41.14;100156.42;107604;1261;72751;-67
2023/09/20 10:22:52;;;;;;;8.40;5.80;;;;;;;28.69;41.18;100152.55;107933;1260;62674;-66
2023/09/20 10:25:36;;;;;;;13.00;7.10;;;;;;;28.88;40.48;100152.31;107731;1255;59053;-66
2023/09/20 10:28:10;;;;;;;9.00;5.90;;;;;;;29.15;40.01;100147.82;107887;1256;73099;-65
2023/09/20 10:31:04;;;;;;;12.90;6.00;;;;;;;29.30;39.13;100148.09;107655;1257;72205;-65
2023/09/20 10:33:45;;;;;;;10.70;6.50;;;;;;;29.46;39.50;100147.41;107870;1260;73819;-66
2023/09/20 10:36:18;;;;;;;;;;;;;;;29.65;38.65;100146.14;107909;1258;62587;-65
2023/09/20 10:38:46;;;;;;;9.40;6.60;;;;;;;29.81;38.41;100142.69;107921;1257;60826;-66
2023/09/20 10:41:14;;;;;;;12.10;6.50;;;;;;;30.16;38.47;100143.04;107837;1258;75321;-67
2023/09/20 10:43:44;;;;;;;13.80;6.30;;;;;;;29.92;38.07;100140.87;108055;1254;70288;-66
2023/09/20 10:46:14;;;;;;;13.20;5.90;;;;;;;29.72;38.33;100133.41;108042;1254;71746;-67
2023/09/20 10:48:44;;;;;;;10.90;6.40;;;;;;;29.78;38.17;100135.04;108072;1260;60843;-67
2023/09/20 10:51:11;;;;;;;11.10;5.80;;;;;;;29.97;37.83;100131.93;108062;1259;60148;-66
2023/09/20 10:53:42;;;;;;;11.10;6.60;;;;;;;29.99;37.99;100132.80;108037;1254;72602;-67
2023/09/20 10:56:10;;;;;;;9.10;6.50;;;;;;;30.24;37.61;100130.39;108055;1254;68706;-67
2023/09/20 10:58:42;;;;;;;10.80;5.90;;;;;;;29.99;37.83;100130.96;108007;1254;73628;-67
2023/09/20 11:01:11;;;;;;;9.50;6.50;;;;;;;30.05;37.79;100129.55;108040;1254;59355;-66
2023/09/20 11:03:39;;;;;;;8.60;6.10;;;;;;;30.35;37.35;100129.36;107996;1260;59527;-68
2023/09/20 11:06:07;;;;;;;10.60;6.30;;;;;;;30.53;37.16;100130.88;108008;1258;72201;-68
2023/09/20 11:08:34;;;;;;;8.40;5.80;;;;;;;30.37;37.46;100127.93;107959;1259;69568;-67
2023/09/20 11:11:02;;;;;;;10.50;6.50;;;;;;;30.34;37.27;100124.09;108039;1254;73062;-68
2023/09/20 11:13:31;;;;;;;9.30;6.30;;;;;;;30.17;37.54;100125.58;108070;1254;60377;-68
2023/09/20 11:16:02;;;;;;;11.00;6.10;;;;;;;30.29;36.97;100125.17;108077;1253;60141;-70
2023/09/20 11:18:30;;;;;;;8.00;5.30;;;;;;;30.31;37.12;100123.17;108079;1254;73614;-66
2023/09/20 11:20:59;;;;;;;8.00;5.70;;;;;;;30.78;36.75;100118.95;107942;1260;69221;-66
2023/09/20 11:23:26;;;;;;;8.00;6.10;;;;;;;31.27;35.91;100116.48;107785;1263;72382;-66
2023/09/20 11:25:55;;;;;;;10.60;6.00;;;;;;;31.34;36.16;100116.48;108027;1254;59634;-67
2023/09/20 11:28:23;;;;;;;9.80;6.80;;;;;;;31.76;35.48;100122.36;108082;1254;59122;-67
2023/09/20 11:30:51;;;;;;;12.50;6.00;;;;;;;31.85;34.88;100124.46;107871;1254;71913;-66
2023/09/20 11:33:29;;;;;;;12.90;7.20;;;;;;;31.84;35.20;100127.66;107918;1254;60768;-67
2023/09/20 11:35:56;;;;;;;11.50;7.00;;;;;;;31.55;35.76;100125.70;108130;1254;74915;-67
2023/09/20 11:38:26;;;;;;;10.00;6.10;;;;;;;31.54;35.44;100126.14;108089;1255;60172;-67
2023/09/20 11:40:53;;;;;;;11.60;7.10;;;;;;;31.34;36.46;100127.33;108157;1254;60042;-67
2023/09/20 11:43:20;;;;;;;9.10;6.90;;;;;;;31.12;36.53;100126.81;108117;1254;72700;-68
2023/09/20 11:45:53;;;;;;;13.90;7.40;;;;;;;31.10;36.75;100126.20;108019;1254;72628;-66
2023/09/20 11:48:28;;;;;;;10.50;7.40;;;;;;;31.42;35.91;100126.55;108056;1254;72961;-66
2023/09/20 11:50:56;;;;;;;11.70;7.90;;;;;;;31.28;36.31;100128.30;108153;1254;59602;-67
2023/09/20 11:53:27;;;;;;;16.70;7.90;;;;;;;31.40;36.35;100123.93;108144;1253;61805;-67
2023/09/20 11:55:54;;;;;;;10.10;7.20;;;;;;;31.38;35.90;100125.27;108092;1253;72194;-67
2023/09/20 11:58:22;;;;;;;16.00;7.80;;;;;;;31.14;36.19;100121.23;108189;1253;73249;-67
2023/09/20 12:00:50;;;;;;;11.20;8.00;;;;;;;31.09;36.42;100121.80;108110;1254;74784;-67
2023/09/20 12:03:18;;;;;;;16.70;8.70;;;;;;;31.10;36.12;100126.45;107979;1254;60085;-66
2023/09/20 12:05:45;;;;;;;14.30;8.20;;;;;;;31.00;36.38;100126.17;108163;1253;59793;-67